Time;durP1;ratioP1;P1;durP2;ratioP2;P2;SDS_P1;SDS_P2;PMS_P1;PMS_P2;Temp;Humidity;BMP_temperature;BMP_pressure;BME280_temperature;BME280_humidity;BME280_pressure;Samples;Min_cycle;Max_cycle;Signal;HPM_P1;HPM_P2
2022/11/02 00:00:40;;;;;;;11.25;3.65;;;;;;;;;;5074113;28;20032;-80
2022/11/02 00:03:05;;;;;;;14.77;3.72;;;;;;;;;;5077031;28;20386;-80
2022/11/02 00:05:31;;;;;;;7.22;3.40;;;;;;;;;;5075705;28;20103;-78
2022/11/02 00:07:56;;;;;;;8.48;3.40;;;;;;;;;;5075228;28;20485;-80
2022/11/02 00:10:22;;;;;;;9.65;2.88;;;;;;;;;;5063516;28;20013;-80
2022/11/02 00:12:48;;;;;;;9.43;3.33;;;;;;;;;;5074809;28;20031;-81
2022/11/02 00:15:13;;;;;;;7.70;3.08;;;;;;;;;;5075423;28;20021;-78
2022/11/02 00:17:43;;;;;;;6.60;3.25;;;;;;;;;;5075517;28;20017;-78
2022/11/02 00:20:10;;;;;;;19.02;3.72;;;;;;;;;;5075125;28;20039;-75
2022/11/02 00:22:36;;;;;;;9.18;2.88;;;;;;;;;;5074999;28;20474;-78
2022/11/02 00:25:03;;;;;;;13.73;3.70;;;;;;;;;;5075096;28;20019;-78
2022/11/02 00:27:28;;;;;;;10.43;3.63;;;;;;;;;;5075149;28;20099;-76
2022/11/02 00:29:53;;;;;;;12.73;4.50;;;;;;;;;;5074606;28;20112;-79
2022/11/02 00:32:19;;;;;;;10.10;3.60;;;;;;;;;;5075354;28;20568;-78
2022/11/02 00:34:44;;;;;;;12.73;3.97;;;;;;;;;;5062200;28;21915;-75
2022/11/02 00:37:09;;;;;;;10.60;4.20;;;;;;;;;;5074844;28;20787;-75
2022/11/02 00:39:34;;;;;;;11.13;4.07;;;;;;;;;;5074083;28;20012;-75
2022/11/02 00:42:00;;;;;;;18.92;3.63;;;;;;;;;;5073741;28;20262;-74
2022/11/02 00:44:25;;;;;;;10.73;3.30;;;;;;;;;;5073660;28;20050;-75
2022/11/02 00:46:50;;;;;;;7.70;2.97;;;;;;;;;;5067956;28;20269;-75
2022/11/02 00:49:16;;;;;;;7.35;2.92;;;;;;;;;;5069109;28;20374;-74
2022/11/02 00:51:42;;;;;;;10.53;3.87;;;;;;;;;;5088497;28;20100;-78
2022/11/02 00:54:07;;;;;;;9.07;3.42;;;;;;;;;;5086867;28;20696;-76
2022/11/02 00:56:32;;;;;;;12.15;3.35;;;;;;;;;;5093994;28;20107;-76
2022/11/02 00:58:58;;;;;;;9.33;3.33;;;;;;;;;;5083849;28;20046;-78
2022/11/02 01:01:23;;;;;;;16.17;4.00;;;;;;;;;;5089649;28;20295;-75
2022/11/02 01:03:48;;;;;;;13.57;3.90;;;;;;;;;;5074005;28;20050;-76
2022/11/02 01:06:14;;;;;;;11.80;4.13;;;;;;;;;;5061911;28;20327;-78
2022/11/02 01:08:39;;;;;;;10.80;3.47;;;;;;;;;;5033794;28;20271;-75
2022/11/02 01:11:16;;;;;;;9.23;3.23;;;;;;;;;;5035944;28;20016;-78
2022/11/02 01:13:41;;;;;;;7.55;3.30;;;;;;;;;;5044053;28;20274;-78
2022/11/02 01:16:07;;;;;;;10.52;3.15;;;;;;;;;;5041827;28;20021;-74
2022/11/02 01:18:32;;;;;;;8.32;3.60;;;;;;;;;;5073907;28;20715;-76
2022/11/02 01:20:58;;;;;;;17.35;3.80;;;;;;;;;;5065615;28;20067;-76
2022/11/02 01:23:24;;;;;;;12.43;3.03;;;;;;;;;;5072718;28;20102;-75
2022/11/02 01:25:49;;;;;;;11.45;3.85;;;;;;;;;;5073689;28;20532;-74
2022/11/02 01:28:14;;;;;;;7.47;3.45;;;;;;;;;;5060488;28;20021;-78
2022/11/02 01:30:40;;;;;;;14.07;3.67;;;;;;;;;;5063932;28;20020;-78
2022/11/02 01:33:05;;;;;;;10.23;3.17;;;;;;;;;;5080350;28;20271;-80
2022/11/02 01:35:30;;;;;;;7.10;3.05;;;;;;;;;;5071612;28;20263;-80
2022/11/02 01:37:56;;;;;;;7.75;3.28;;;;;;;;;;5068755;28;20083;-79
2022/11/02 01:40:21;;;;;;;11.95;3.20;;;;;;;;;;5072005;28;20166;-73
2022/11/02 01:42:46;;;;;;;8.30;3.53;;;;;;;;;;5065741;28;20017;-79
2022/11/02 01:45:12;;;;;;;8.27;3.28;;;;;;;;;;5067235;28;20267;-76
2022/11/02 01:47:39;;;;;;;10.20;3.13;;;;;;;;;;5059033;28;20032;-77
2022/11/02 01:50:16;;;;;;;10.23;3.10;;;;;;;;;;5073352;28;20023;-78
2022/11/02 01:52:42;;;;;;;8.48;3.33;;;;;;;;;;5072662;28;20540;-79
2022/11/02 01:55:13;;;;;;;12.15;3.88;;;;;;;;;;5072360;28;20020;-78
2022/11/02 01:57:40;;;;;;;4.90;2.80;;;;;;;;;;5072898;28;20126;-77
2022/11/02 02:00:10;;;;;;;10.80;3.47;;;;;;;;;;5060955;28;20021;-75
2022/11/02 02:02:39;;;;;;;8.80;2.92;;;;;;;;;;5061851;28;20028;-76
2022/11/02 02:05:06;;;;;;;7.00;2.97;;;;;;;;;;5081199;28;20116;-77
2022/11/02 02:07:32;;;;;;;12.15;3.80;;;;;;;;;;5075406;28;20095;-76
2022/11/02 02:09:57;;;;;;;14.70;3.45;;;;;;;;;;5076492;28;20103;-76
2022/11/02 02:12:23;;;;;;;9.35;3.25;;;;;;;;;;5078445;28;20020;-73
2022/11/02 02:14:49;;;;;;;7.85;2.50;;;;;;;;;;5090476;28;20024;-76
2022/11/02 02:17:21;;;;;;;11.25;3.63;;;;;;;;;;5083376;28;20426;-77
2022/11/02 02:19:50;;;;;;;12.23;2.95;;;;;;;;;;5073136;28;20418;-73
2022/11/02 02:22:24;;;;;;;8.00;3.08;;;;;;;;;;5060465;28;20028;-75
2022/11/02 02:25:08;;;;;;;12.27;2.65;;;;;;;;;;5074412;28;20058;-76
2022/11/02 02:27:39;;;;;;;9.60;3.38;;;;;;;;;;5079014;28;20107;-75
2022/11/02 02:30:09;;;;;;;9.30;3.50;;;;;;;;;;5072325;28;20008;-77
2022/11/02 02:32:39;;;;;;;11.07;2.88;;;;;;;;;;5072607;28;20095;-76
2022/11/02 02:35:28;;;;;;;10.25;2.60;;;;;;;;;;5072467;28;20029;-78
2022/11/02 02:37:55;;;;;;;9.23;2.92;;;;;;;;;;5070290;28;20128;-76
2022/11/02 02:40:41;;;;;;;8.73;3.15;;;;;;;;;;5090525;28;20024;-76
2022/11/02 02:43:06;;;;;;;5.95;2.60;;;;;;;;;;5091868;28;20056;-79
2022/11/02 02:45:37;;;;;;;7.03;2.77;;;;;;;;;;5073591;28;20044;-78
2022/11/02 02:48:06;;;;;;;6.82;2.60;;;;;;;;;;5057547;28;20336;-80
2022/11/02 02:50:35;;;;;;;15.00;3.38;;;;;;;;;;5081234;28;20020;-79
2022/11/02 02:53:02;;;;;;;13.35;3.35;;;;;;;;;;5075449;28;20020;-82
2022/11/02 02:55:31;;;;;;;12.38;3.10;;;;;;;;;;5071912;28;20055;-78
2022/11/02 02:57:57;;;;;;;5.20;2.25;;;;;;;;;;5071957;28;20012;-79
2022/11/02 03:00:22;;;;;;;8.73;3.15;;;;;;;;;;5071960;28;20030;-81
2022/11/02 03:02:59;;;;;;;7.70;3.35;;;;;;;;;;5071976;28;20016;-80
2022/11/02 03:05:26;;;;;;;5.40;2.45;;;;;;;;;;5054005;28;20701;-81
2022/11/02 03:07:53;;;;;;;9.65;3.30;;;;;;;;;;5059651;28;20032;-80
2022/11/02 03:10:27;;;;;;;8.85;3.38;;;;;;;;;;5056292;28;20012;-77
2022/11/02 03:12:52;;;;;;;6.65;2.88;;;;;;;;;;5072153;28;20081;-80
2022/11/02 03:15:32;;;;;;;10.30;3.47;;;;;;;;;;5075983;28;20401;-78
2022/11/02 03:18:01;;;;;;;7.93;3.30;;;;;;;;;;5090588;28;20274;-80
2022/11/02 03:20:38;;;;;;;8.35;3.08;;;;;;;;;;5064510;28;20035;-77
2022/11/02 03:23:06;;;;;;;15.30;3.00;;;;;;;;;;5074158;28;20952;-76
2022/11/02 03:25:43;;;;;;;9.38;3.17;;;;;;;;;;5081617;28;20027;-76
2022/11/02 03:28:11;;;;;;;10.73;3.65;;;;;;;;;;5071539;28;20100;-72
2022/11/02 03:30:41;;;;;;;9.48;4.25;;;;;;;;;;5080918;28;20020;-75
2022/11/02 03:33:19;;;;;;;10.63;3.30;;;;;;;;;;5063961;28;20101;-74
2022/11/02 03:35:50;;;;;;;7.90;3.33;;;;;;;;;;5062429;28;20021;-75
2022/11/02 03:38:22;;;;;;;11.20;3.42;;;;;;;;;;5077135;28;20031;-75
2022/11/02 03:40:49;;;;;;;8.77;2.92;;;;;;;;;;5073810;28;20108;-76
2022/11/02 03:43:15;;;;;;;7.55;3.00;;;;;;;;;;5075517;28;20024;-76
2022/11/02 03:45:46;;;;;;;12.10;3.70;;;;;;;;;;5075614;28;20021;-75
2022/11/02 03:48:12;;;;;;;6.10;2.58;;;;;;;;;;5073297;28;20100;-76
2022/11/02 03:50:40;;;;;;;11.45;3.03;;;;;;;;;;5070879;28;20048;-76
2022/11/02 03:53:08;;;;;;;8.18;2.75;;;;;;;;;;5075342;28;20044;-79
2022/11/02 03:55:36;;;;;;;10.00;3.47;;;;;;;;;;5070070;28;20135;-80
2022/11/02 03:58:01;;;;;;;9.02;3.17;;;;;;;;;;5079657;28;20057;-82
2022/11/02 04:00:29;;;;;;;12.50;3.45;;;;;;;;;;5068498;28;20016;-79
2022/11/02 04:02:56;;;;;;;16.85;3.78;;;;;;;;;;5076015;28;20019;-79
2022/11/02 04:05:28;;;;;;;7.93;3.05;;;;;;;;;;5079534;28;20024;-79
2022/11/02 04:14:36;;;;;;;12.80;3.67;;;;;;;;;;5075409;28;20166;-80
2022/11/02 04:16:07;;;;;;;7.78;3.03;;;;;;;;;;5073886;28;20032;-82
2022/11/02 04:21:15;;;;;;;10.82;3.53;;;;;;;;;;5088876;28;20364;-79
2022/11/02 04:26:24;;;;;;;12.05;3.78;;;;;;;;;;5073434;28;20279;-75
2022/11/02 04:28:49;;;;;;;7.25;2.78;;;;;;;;;;5073571;28;20012;-77
2022/11/02 04:31:15;;;;;;;13.50;3.63;;;;;;;;;;5074879;28;20013;-77
2022/11/02 04:33:40;;;;;;;10.20;3.22;;;;;;;;;;5074695;28;20320;-79
2022/11/02 04:36:06;;;;;;;14.90;3.53;;;;;;;;;;5087164;28;20024;-79
2022/11/02 04:38:40;;;;;;;9.85;3.38;;;;;;;;;;5078304;28;20016;-76
2022/11/02 04:43:54;;;;;;;10.18;3.20;;;;;;;;;;5060325;28;20023;-76
2022/11/02 04:46:20;;;;;;;10.35;3.90;;;;;;;;;;5063878;28;20016;-80
2022/11/02 04:48:45;;;;;;;13.45;3.90;;;;;;;;;;5073567;28;20016;-81
2022/11/02 04:51:10;;;;;;;8.77;3.50;;;;;;;;;;5075033;28;20023;-81
2022/11/02 04:53:35;;;;;;;12.68;4.13;;;;;;;;;;5074470;28;20021;-80
2022/11/02 04:56:01;;;;;;;12.65;3.83;;;;;;;;;;5073770;28;20024;-78
2022/11/02 04:58:26;;;;;;;8.60;3.78;;;;;;;;;;5074815;28;20092;-76
2022/11/02 05:00:51;;;;;;;9.47;3.97;;;;;;;;;;5064905;28;20446;-76
2022/11/02 05:03:16;;;;;;;12.35;3.75;;;;;;;;;;5073398;28;20347;-80
2022/11/02 05:05:42;;;;;;;15.97;3.37;;;;;;;;;;5077049;28;20024;-76
2022/11/02 05:08:07;;;;;;;8.43;3.00;;;;;;;;;;5066724;28;20381;-80
2022/11/02 05:10:33;;;;;;;11.43;3.70;;;;;;;;;;5072310;28;20020;-80
2022/11/02 05:12:58;;;;;;;12.07;3.73;;;;;;;;;;5075364;28;20016;-79
2022/11/02 05:15:23;;;;;;;10.27;3.95;;;;;;;;;;5076705;28;20271;-79
2022/11/02 05:17:49;;;;;;;11.43;3.70;;;;;;;;;;5091451;28;20017;-78
2022/11/02 05:20:14;;;;;;;6.17;3.27;;;;;;;;;;5065934;28;20032;-79
2022/11/02 05:22:42;;;;;;;10.50;3.67;;;;;;;;;;5067028;28;20316;-76
2022/11/02 05:25:08;;;;;;;13.85;3.65;;;;;;;;;;5071346;28;20027;-76
2022/11/02 05:27:34;;;;;;;12.63;3.58;;;;;;;;;;5063555;28;20022;-77
2022/11/02 05:29:59;;;;;;;12.75;3.67;;;;;;;;;;5072297;28;20021;-77
2022/11/02 05:32:25;;;;;;;11.53;3.53;;;;;;;;;;5075566;28;20024;-78
2022/11/02 05:34:50;;;;;;;14.85;3.88;;;;;;;;;;5073221;28;20371;-80
2022/11/02 05:37:16;;;;;;;13.33;4.40;;;;;;;;;;5070207;28;20460;-79
2022/11/02 05:39:41;;;;;;;13.00;3.92;;;;;;;;;;5071860;28;20693;-80
2022/11/02 05:42:06;;;;;;;8.13;3.70;;;;;;;;;;5075121;28;20099;-80
2022/11/02 05:44:32;;;;;;;10.60;3.38;;;;;;;;;;5073553;28;20020;-82
2022/11/02 05:46:57;;;;;;;9.52;3.72;;;;;;;;;;5059488;28;20017;-77
2022/11/02 05:49:22;;;;;;;19.30;3.83;;;;;;;;;;5069102;28;20029;-75
2022/11/02 05:51:48;;;;;;;11.32;4.25;;;;;;;;;;5073057;28;20309;-79
2022/11/02 05:54:13;;;;;;;11.05;3.38;;;;;;;;;;5073104;28;20021;-71
2022/11/02 05:56:38;;;;;;;12.57;4.28;;;;;;;;;;5073256;28;20024;-78
2022/11/02 05:59:03;;;;;;;6.47;3.03;;;;;;;;;;5072750;28;20025;-79
2022/11/02 06:01:29;;;;;;;13.63;4.00;;;;;;;;;;5073251;28;20374;-77
2022/11/02 06:03:54;;;;;;;15.50;3.50;;;;;;;;;;5072236;28;20988;-78
2022/11/02 06:06:19;;;;;;;10.50;3.77;;;;;;;;;;5076056;28;20266;-78
2022/11/02 06:08:44;;;;;;;14.13;5.97;;;;;;;;;;5072909;28;20266;-76
2022/11/02 06:11:10;;;;;;;14.27;5.13;;;;;;;;;;5063597;28;20024;-77
2022/11/02 06:13:36;;;;;;;9.32;3.63;;;;;;;;;;5067994;28;20113;-78
2022/11/02 06:16:02;;;;;;;12.27;3.90;;;;;;;;;;5075116;28;20531;-79
2022/11/02 06:18:28;;;;;;;11.38;4.47;;;;;;;;;;5100307;28;20024;-77
2022/11/02 06:20:55;;;;;;;12.95;3.55;;;;;;;;;;5058985;28;20063;-72
2022/11/02 06:23:21;;;;;;;12.88;3.60;;;;;;;;;;5072760;28;20522;-74
2022/11/02 06:25:49;;;;;;;7.63;3.37;;;;;;;;;;5073147;28;20104;-75
2022/11/02 06:28:15;;;;;;;10.70;3.58;;;;;;;;;;5071801;28;20324;-74
2022/11/02 06:30:41;;;;;;;16.73;4.93;;;;;;;;;;5070732;28;20020;-79
2022/11/02 06:33:06;;;;;;;9.57;4.10;;;;;;;;;;5059796;28;20861;-77
2022/11/02 06:35:32;;;;;;;12.87;4.90;;;;;;;;;;5072958;28;20024;-79
2022/11/02 06:37:57;;;;;;;24.58;4.50;;;;;;;;;;5061240;28;20309;-76
2022/11/02 06:40:22;;;;;;;12.32;4.55;;;;;;;;;;5072192;28;20024;-74
2022/11/02 06:42:48;;;;;;;11.97;4.07;;;;;;;;;;5072290;28;20402;-77
2022/11/02 06:45:13;;;;;;;11.95;4.43;;;;;;;;;;5054465;28;20607;-82
2022/11/02 06:47:39;;;;;;;14.20;4.93;;;;;;;;;;5058636;28;20080;-77
2022/11/02 06:50:05;;;;;;;8.65;4.40;;;;;;;;;;5059885;28;20260;-76
2022/11/02 06:52:30;;;;;;;11.98;4.00;;;;;;;;;;5061311;28;20452;-80
2022/11/02 06:54:55;;;;;;;11.57;4.30;;;;;;;;;;5064436;28;20008;-79
2022/11/02 06:57:22;;;;;;;11.77;4.07;;;;;;;;;;5072148;28;20051;-76
2022/11/02 06:59:47;;;;;;;11.73;4.93;;;;;;;;;;5064571;28;20466;-77
2022/11/02 07:02:12;;;;;;;13.15;4.50;;;;;;;;;;5054985;28;20028;-80
2022/11/02 07:04:37;;;;;;;12.55;5.07;;;;;;;;;;5063557;28;20096;-78
2022/11/02 07:07:03;;;;;;;11.50;4.00;;;;;;;;;;5059653;28;20029;-81
2022/11/02 07:09:28;;;;;;;17.10;5.60;;;;;;;;;;5021322;28;20013;-80
2022/11/02 07:11:53;;;;;;;8.48;3.17;;;;;;;;;;5037328;28;20020;-80
2022/11/02 07:14:19;;;;;;;9.50;3.63;;;;;;;;;;5043343;28;20026;-79
2022/11/02 07:16:44;;;;;;;16.67;4.43;;;;;;;;;;5042787;28;20058;-81
2022/11/02 07:19:09;;;;;;;12.27;3.67;;;;;;;;;;5043161;28;20032;-78
2022/11/02 07:21:34;;;;;;;21.70;4.68;;;;;;;;;;5022145;28;20033;-77
2022/11/02 07:24:00;;;;;;;16.65;5.10;;;;;;;;;;5021282;28;20016;-78
2022/11/02 07:26:25;;;;;;;9.70;4.07;;;;;;;;;;5032340;28;20021;-82
2022/11/02 07:28:51;;;;;;;10.90;4.75;;;;;;;;;;5027073;28;20042;-79
2022/11/02 07:31:16;;;;;;;11.50;4.40;;;;;;;;;;5025363;28;20020;-80
2022/11/02 07:33:41;;;;;;;14.40;5.07;;;;;;;;;;5035108;28;20016;-82
2022/11/02 07:36:07;;;;;;;14.13;4.70;;;;;;;;;;5034940;28;20029;-82
2022/11/02 07:38:32;;;;;;;17.38;5.53;;;;;;;;;;5039784;28;20238;-79
2022/11/02 07:40:57;;;;;;;15.75;4.45;;;;;;;;;;5036376;28;20028;-78
2022/11/02 07:43:23;;;;;;;18.52;5.13;;;;;;;;;;5078387;28;20016;-82
2022/11/02 07:45:48;;;;;;;8.20;4.25;;;;;;;;;;5062265;28;20058;-81
2022/11/02 07:48:13;;;;;;;11.73;4.57;;;;;;;;;;5067221;28;20116;-80
2022/11/02 07:50:38;;;;;;;13.27;4.90;;;;;;;;;;5065008;28;20297;-76
2022/11/02 07:53:03;;;;;;;13.88;4.47;;;;;;;;;;5083370;28;20697;-78
2022/11/02 07:55:29;;;;;;;17.67;4.90;;;;;;;;;;5070370;28;20055;-79
2022/11/02 07:58:04;;;;;;;14.63;4.65;;;;;;;;;;5064390;28;20265;-80
2022/11/02 08:00:31;;;;;;;11.40;4.47;;;;;;;;;;5072682;28;20083;-80
2022/11/02 08:02:57;;;;;;;22.15;5.38;;;;;;;;;;5061434;28;20105;-78
2022/11/02 08:05:23;;;;;;;20.45;4.90;;;;;;;;;;5061337;28;20278;-81
2022/11/02 08:08:02;;;;;;;14.48;4.55;;;;;;;;;;5055011;28;20017;-80
2022/11/02 08:10:28;;;;;;;10.50;4.53;;;;;;;;;;5061929;28;20467;-80
2022/11/02 08:12:54;;;;;;;14.63;4.95;;;;;;;;;;5071343;28;20016;-81
2022/11/02 08:15:19;;;;;;;18.92;4.93;;;;;;;;;;5071819;28;20553;-79
2022/11/02 08:17:44;;;;;;;15.15;4.95;;;;;;;;;;5072792;28;20048;-80
2022/11/02 08:20:10;;;;;;;15.57;4.30;;;;;;;;;;5074556;28;20451;-79
2022/11/02 08:22:38;;;;;;;19.10;5.75;;;;;;;;;;5073806;28;20748;-77
2022/11/02 08:25:04;;;;;;;15.90;4.93;;;;;;;;;;5069220;28;20062;-80
2022/11/02 08:27:29;;;;;;;17.27;4.55;;;;;;;;;;5060790;28;20528;-79
2022/11/02 08:29:54;;;;;;;13.57;4.77;;;;;;;;;;5066926;28;20020;-79
2022/11/02 08:32:19;;;;;;;17.23;5.47;;;;;;;;;;5074981;28;20274;-77
2022/11/02 08:34:45;;;;;;;15.27;4.53;;;;;;;;;;5062223;28;20021;-76
2022/11/02 08:37:10;;;;;;;18.25;4.75;;;;;;;;;;5074450;28;20371;-77
2022/11/02 08:39:35;;;;;;;15.80;5.30;;;;;;;;;;5076582;28;20020;-77
2022/11/02 08:42:00;;;;;;;11.47;4.57;;;;;;;;;;5085342;28;20378;-80
2022/11/02 08:44:26;;;;;;;15.20;5.53;;;;;;;;;;5065155;28;20749;-76
2022/11/02 08:46:51;;;;;;;12.67;4.90;;;;;;;;;;5057567;28;20826;-80
2022/11/02 08:49:17;;;;;;;14.57;4.27;;;;;;;;;;5061022;28;20633;-78
2022/11/02 08:51:43;;;;;;;18.23;4.78;;;;;;;;;;5070477;28;20277;-78
2022/11/02 08:54:08;;;;;;;13.70;5.38;;;;;;;;;;5069243;28;20020;-79
2022/11/02 08:56:33;;;;;;;11.88;5.05;;;;;;;;;;5068130;28;20467;-76
2022/11/02 08:58:58;;;;;;;27.60;5.33;;;;;;;;;;5056020;28;20096;-80
2022/11/02 09:01:24;;;;;;;16.67;4.77;;;;;;;;;;5066288;28;20377;-79
2022/11/02 09:03:49;;;;;;;16.83;4.80;;;;;;;;;;5055353;28;20295;-78
2022/11/02 09:06:14;;;;;;;19.00;5.20;;;;;;;;;;5065351;28;20275;-82
2022/11/02 09:08:39;;;;;;;13.32;4.63;;;;;;;;;;5059437;28;20028;-77
2022/11/02 09:11:05;;;;;;;17.95;5.30;;;;;;;;;;5068369;28;20449;-79
2022/11/02 09:13:30;;;;;;;22.77;4.75;;;;;;;;;;5076583;28;20016;-80
2022/11/02 09:15:56;;;;;;;16.40;4.90;;;;;;;;;;5085260;28;20031;-77
2022/11/02 09:18:22;;;;;;;13.95;4.50;;;;;;;;;;5059715;28;20024;-78
2022/11/02 09:20:47;;;;;;;12.10;4.40;;;;;;;;;;5073950;28;20025;-82
2022/11/02 09:23:16;;;;;;;10.05;4.00;;;;;;;;;;5066941;28;20048;-77
2022/11/02 09:25:42;;;;;;;12.40;5.15;;;;;;;;;;5065366;28;20016;-78
2022/11/02 09:28:08;;;;;;;15.27;5.78;;;;;;;;;;5058028;28;20089;-79
2022/11/02 09:30:33;;;;;;;11.02;5.30;;;;;;;;;;5060480;28;20054;-77
2022/11/02 09:32:59;;;;;;;18.93;4.93;;;;;;;;;;5068084;28;20028;-81
2022/11/02 09:35:26;;;;;;;13.52;5.15;;;;;;;;;;5086319;28;20350;-82
2022/11/02 09:37:51;;;;;;;10.45;3.67;;;;;;;;;;5073416;28;20051;-81
2022/11/02 09:40:20;;;;;;;13.38;4.65;;;;;;;;;;5085901;28;20450;-81
2022/11/02 09:42:45;;;;;;;12.70;5.00;;;;;;;;;;5072846;28;20032;-80
2022/11/02 09:45:12;;;;;;;10.70;4.47;;;;;;;;;;5074544;28;20073;-79
2022/11/02 09:47:43;;;;;;;13.13;4.53;;;;;;;;;;5059832;28;20271;-80
2022/11/02 09:50:12;;;;;;;28.27;6.28;;;;;;;;;;5065252;28;20008;-78
2022/11/02 09:52:40;;;;;;;20.42;5.18;;;;;;;;;;5083480;28;20065;-80
2022/11/02 09:55:17;;;;;;;17.65;4.57;;;;;;;;;;5091481;28;20404;-80
2022/11/02 09:57:44;;;;;;;12.80;5.22;;;;;;;;;;5088206;28;20027;-79
2022/11/02 10:00:13;;;;;;;10.90;4.80;;;;;;;;;;5065170;28;20058;-81
2022/11/02 10:02:48;;;;;;;13.13;4.85;;;;;;;;;;5070233;28;20417;-81
2022/11/02 10:05:13;;;;;;;;;;;;;;;;;;5060915;28;20025;-80
2022/11/02 10:07:47;;;;;;;20.20;4.68;;;;;;;;;;5055952;28;19912;-75
2022/11/02 10:10:12;;;;;;;;;;;;;;;;;;5056849;28;20021;-71
2022/11/02 10:12:37;;;;;;;18.27;4.57;;;;;;;;;;5060038;28;19917;-82
2022/11/02 10:15:15;;;;;;;18.40;5.37;;;;;;;;;;5061603;28;20120;-80
2022/11/02 10:17:42;;;;;;;13.77;5.05;;;;;;;;;;5065254;28;20633;-80
2022/11/02 10:20:18;;;;;;;13.93;5.05;;;;;;;;;;5055073;28;20025;-78
2022/11/02 10:22:44;;;;;;;12.52;4.60;;;;;;;;;;5032597;28;20028;-81
2022/11/02 10:25:17;;;;;;;8.95;4.65;;;;;;;;;;5029607;28;20106;-80
2022/11/02 10:27:43;;;;;;;16.38;5.53;;;;;;;;;;5029202;28;20900;-82
2022/11/02 10:30:12;;;;;;;14.63;5.38;;;;;;;;;;5039395;28;20021;-81
2022/11/02 10:32:39;;;;;;;11.55;4.95;;;;;;;;;;5047769;28;20031;-80
2022/11/02 10:35:09;;;;;;;11.77;5.43;;;;;;;;;;5037971;28;20021;-82
2022/11/02 10:37:40;;;;;;;14.02;4.10;;;;;;;;;;5035783;28;20842;-75
2022/11/02 10:40:08;;;;;;;10.02;4.80;;;;;;;;;;5030809;28;20036;-74
2022/11/02 10:42:33;;;;;;;17.63;4.75;;;;;;;;;;5028697;28;20416;-75
2022/11/02 10:45:28;;;;;;;16.83;5.27;;;;;;;;;;5024960;28;20094;-75
2022/11/02 10:47:59;;;;;;;10.95;4.75;;;;;;;;;;5008465;28;20313;-80
2022/11/02 10:50:57;;;;;;;16.63;4.93;;;;;;;;;;5050402;28;20120;-81
2022/11/02 10:53:22;;;;;;;13.25;4.72;;;;;;;;;;5027311;28;20090;-82
2022/11/02 10:55:51;;;;;;;14.05;5.18;;;;;;;;;;5053070;28;20687;-81
2022/11/02 10:58:19;;;;;;;12.80;4.68;;;;;;;;;;5032675;28;20055;-82
2022/11/02 11:00:46;;;;;;;12.07;5.45;;;;;;;;;;5041051;28;20114;-78
2022/11/02 11:03:13;;;;;;;12.45;4.78;;;;;;;;;;5056314;28;20017;-81
2022/11/02 11:05:54;;;;;;;10.40;4.28;;;;;;;;;;5060049;28;20149;-82
2022/11/02 11:08:37;;;;;;;11.20;4.50;;;;;;;;;;5055940;28;20021;-80
2022/11/02 11:11:20;;;;;;;11.07;4.85;;;;;;;;;;5071434;28;20534;-81
2022/11/02 11:13:52;;;;;;;13.63;4.15;;;;;;;;;;5071920;28;20097;-79
2022/11/02 11:16:18;;;;;;;12.55;4.93;;;;;;;;;;5070279;28;20051;-80
2022/11/02 11:18:48;;;;;;;12.40;4.65;;;;;;;;;;5091991;28;20071;-80
2022/11/02 11:21:13;;;;;;;17.48;5.13;;;;;;;;;;5086676;28;20037;-79
2022/11/02 11:23:38;;;;;;;14.00;4.60;;;;;;;;;;5053956;28;20016;-78
2022/11/02 11:26:05;;;;;;;22.20;5.17;;;;;;;;;;5053772;28;20098;-81
2022/11/02 11:28:49;;;;;;;14.68;4.18;;;;;;;;;;5058271;28;20277;-83
2022/11/02 11:31:15;;;;;;;12.35;5.15;;;;;;;;;;5071856;28;20032;-82
2022/11/02 11:33:46;;;;;;;16.50;5.18;;;;;;;;;;5071113;28;20067;-78
2022/11/02 11:36:19;;;;;;;15.15;5.10;;;;;;;;;;5071428;28;20028;-78
2022/11/02 11:38:47;;;;;;;13.10;5.40;;;;;;;;;;5072432;28;20024;-81
2022/11/02 11:41:12;;;;;;;15.27;4.20;;;;;;;;;;5089403;28;20107;-76
2022/11/02 11:43:39;;;;;;;16.35;5.03;;;;;;;;;;5073912;28;20124;-80
2022/11/02 11:46:06;;;;;;;11.60;4.30;;;;;;;;;;5058520;28;20015;-82
2022/11/02 11:48:31;;;;;;;21.13;4.88;;;;;;;;;;5047570;28;20029;-80
2022/11/02 11:50:57;;;;;;;10.07;4.27;;;;;;;;;;5065356;28;20415;-80
2022/11/02 11:53:23;;;;;;;11.98;4.90;;;;;;;;;;5060992;28;20322;-80
2022/11/02 11:55:49;;;;;;;12.38;4.68;;;;;;;;;;5080066;28;20040;-77
2022/11/02 11:58:18;;;;;;;11.05;5.10;;;;;;;;;;5075276;28;20025;-79
2022/11/02 12:00:43;;;;;;;12.70;4.57;;;;;;;;;;5073989;28;20478;-81
2022/11/02 12:03:10;;;;;;;13.00;4.28;;;;;;;;;;5073519;28;20017;-79
2022/11/02 12:05:47;;;;;;;13.18;4.30;;;;;;;;;;5060326;28;20020;-81
2022/11/02 12:08:28;;;;;;;13.38;4.85;;;;;;;;;;5067856;28;20024;-82
2022/11/02 12:11:03;;;;;;;14.68;4.07;;;;;;;;;;5075555;28;20542;-81
2022/11/02 12:13:47;;;;;;;14.73;5.03;;;;;;;;;;5081467;28;20062;-77
2022/11/02 12:16:12;;;;;;;11.35;4.78;;;;;;;;;;5064979;28;20103;-76
2022/11/02 12:18:40;;;;;;;13.85;4.00;;;;;;;;;;5083616;28;20486;-76
2022/11/02 12:21:35;;;;;;;11.93;4.45;;;;;;;;;;5076118;28;20062;-76
2022/11/02 12:24:03;;;;;;;13.30;4.72;;;;;;;;;;5054015;28;20040;-76
2022/11/02 12:26:34;;;;;;;10.88;4.10;;;;;;;;;;5072948;28;20432;-78
2022/11/02 12:29:11;;;;;;;10.88;4.65;;;;;;;;;;5074819;28;20027;-80
2022/11/02 12:31:44;;;;;;;10.18;4.03;;;;;;;;;;5074590;28;20035;-79
2022/11/02 12:34:21;;;;;;;8.75;4.35;;;;;;;;;;5067623;28;20016;-78
2022/11/02 12:36:47;;;;;;;9.05;4.57;;;;;;;;;;5061182;28;20053;-79
2022/11/02 12:39:18;;;;;;;9.05;3.45;;;;;;;;;;5068115;28;20103;-78
2022/11/02 12:41:58;;;;;;;12.75;5.28;;;;;;;;;;5072427;28;20111;-78
2022/11/02 12:44:25;;;;;;;19.92;4.78;;;;;;;;;;5067018;28;20028;-82
2022/11/02 12:46:55;;;;;;;11.85;4.03;;;;;;;;;;5076841;28;20072;-80
2022/11/02 12:49:20;;;;;;;8.93;3.75;;;;;;;;;;5073411;28;20016;-80
2022/11/02 12:51:53;;;;;;;11.23;4.27;;;;;;;;;;5074785;28;20024;-82
2022/11/02 12:54:25;;;;;;;12.50;4.68;;;;;;;;;;5073744;28;20331;-81
2022/11/02 12:56:52;;;;;;;17.38;4.95;;;;;;;;;;5074229;28;20382;-81
2022/11/02 12:59:22;;;;;;;9.23;3.78;;;;;;;;;;5067401;28;20074;-79
2022/11/02 13:01:51;;;;;;;12.95;4.00;;;;;;;;;;5072654;28;20040;-80
2022/11/02 13:04:23;;;;;;;8.48;3.67;;;;;;;;;;5074337;28;20268;-80
2022/11/02 13:06:55;;;;;;;12.75;3.83;;;;;;;;;;5073424;28;20474;-79
2022/11/02 13:09:23;;;;;;;11.43;4.20;;;;;;;;;;5060448;28;20770;-80
2022/11/02 13:12:01;;;;;;;8.65;3.75;;;;;;;;;;5076475;28;20024;-80
2022/11/02 13:14:28;;;;;;;10.35;3.80;;;;;;;;;;5072882;28;20031;-80
2022/11/02 13:16:56;;;;;;;12.05;4.18;;;;;;;;;;5063953;28;20050;-80
2022/11/02 13:19:41;;;;;;;16.27;4.10;;;;;;;;;;5073666;28;20027;-82
2022/11/02 13:22:11;;;;;;;13.80;3.83;;;;;;;;;;5073708;28;20047;-79
2022/11/02 13:24:44;;;;;;;10.68;3.05;;;;;;;;;;5059854;28;20025;-79
2022/11/02 13:27:21;;;;;;;24.13;4.40;;;;;;;;;;5071031;28;20017;-80
2022/11/02 13:29:47;;;;;;;10.80;4.07;;;;;;;;;;5056667;28;20024;-74
2022/11/02 13:32:12;;;;;;;10.93;3.47;;;;;;;;;;5068606;28;20494;-75
2022/11/02 13:34:42;;;;;;;19.53;3.87;;;;;;;;;;5073407;28;20073;-76
2022/11/02 13:37:11;;;;;;;9.00;4.15;;;;;;;;;;5057722;28;20024;-78
2022/11/02 13:39:38;;;;;;;11.77;3.53;;;;;;;;;;5073420;28;20050;-78
2022/11/02 13:42:04;;;;;;;12.27;4.38;;;;;;;;;;5076545;28;20039;-78
2022/11/02 13:44:29;;;;;;;12.20;4.10;;;;;;;;;;5069027;28;20054;-79
2022/11/02 13:46:54;;;;;;;17.83;4.27;;;;;;;;;;5065254;28;20075;-80
2022/11/02 13:49:29;;;;;;;18.47;4.57;;;;;;;;;;5080646;28;20270;-77
2022/11/02 13:51:57;;;;;;;18.15;4.07;;;;;;;;;;5064674;28;20017;-76
2022/11/02 13:54:28;;;;;;;13.75;4.43;;;;;;;;;;5065960;28;20475;-79
2022/11/02 13:56:55;;;;;;;9.93;3.67;;;;;;;;;;5047862;28;20082;-78
2022/11/02 13:59:37;;;;;;;9.13;4.03;;;;;;;;;;5073833;28;20062;-79
2022/11/02 14:02:04;;;;;;;12.32;4.40;;;;;;;;;;5067575;28;20036;-76
2022/11/02 14:04:36;;;;;;;14.70;4.40;;;;;;;;;;5079425;28;20028;-77
2022/11/02 14:07:03;;;;;;;8.90;3.97;;;;;;;;;;5073066;28;20083;-78
2022/11/02 14:09:33;;;;;;;13.30;3.88;;;;;;;;;;5085268;28;20055;-75
2022/11/02 14:12:16;;;;;;;9.85;3.30;;;;;;;;;;5087166;28;20078;-75
2022/11/02 14:14:42;;;;;;;7.97;4.00;;;;;;;;;;5072617;28;20029;-75
2022/11/02 14:17:17;;;;;;;10.30;3.05;;;;;;;;;;5091677;28;20496;-75
2022/11/02 14:19:45;;;;;;;10.52;3.97;;;;;;;;;;5074030;28;20382;-75
2022/11/02 14:22:12;;;;;;;11.38;4.78;;;;;;;;;;5072872;28;20033;-75
2022/11/02 14:24:38;;;;;;;9.95;3.47;;;;;;;;;;5072255;28;20506;-76
2022/11/02 14:27:12;;;;;;;8.15;3.70;;;;;;;;;;5072156;28;20082;-75
2022/11/02 14:29:46;;;;;;;7.30;3.03;;;;;;;;;;5058363;28;20414;-76
2022/11/02 14:32:11;;;;;;;7.32;3.15;;;;;;;;;;5057881;28;20028;-76
2022/11/02 14:34:57;;;;;;;14.10;3.80;;;;;;;;;;5067290;28;20356;-81
2022/11/02 14:37:22;;;;;;;14.23;3.30;;;;;;;;;;5064909;28;20309;-79
2022/11/02 14:39:52;;;;;;;8.73;3.77;;;;;;;;;;5070400;28;20025;-80
2022/11/02 14:42:17;;;;;;;8.52;3.67;;;;;;;;;;5062431;28;20021;-81
2022/11/02 14:44:56;;;;;;;10.32;3.50;;;;;;;;;;5062948;28;20457;-79
2022/11/02 14:47:26;;;;;;;15.48;3.78;;;;;;;;;;5052718;28;20375;-81
2022/11/02 14:49:54;;;;;;;12.90;4.18;;;;;;;;;;5070982;28;20024;-80
2022/11/02 14:52:25;;;;;;;8.38;3.55;;;;;;;;;;5060078;28;20111;-80